As Sib, Oman
Current Conditions -  °F | °C
As of 9:50 AM on Thursday 23 Oct 2014 (Local Time) from EQMN Reporting Station
Clear Clear  
Wind Chill: 33°   Ceiling: Unl
Heat Index: 33°   Visibility: 6mi
Dew Point: 15°   Wind: 5mph
Humidity: 34%   Direction: 360°N
Pressure: 29.97"   Gusts: NA
Location:  23.67°N, 58.19°E
Report Text: EQMN 230550Z 36004KT 9999 SKC 33/15 Q1015 BLU NOSIG
Loading
Personal Weather Stations






























Interactive Weather Map
Tropical Storm Tracking
New forecast layout! Learn more

10-Day Weather Forecast

Advertisements
Track Severe Weather on mobile